sensor_id;sensor_type;location;lat;lon;timestamp;noise_LAeq;noise_LA_min;noise_LA_max;noise_LA01;noise_LA95
69668;Laerm;66534;52.370;4.832;2024-03-25T00:00:15;39.14;36.13;42.99;;
69668;Laerm;66534;52.370;4.832;2024-03-25T00:00:46;47.66;40.37;55.78;;
69668;Laerm;66534;52.370;4.832;2024-03-25T00:01:16;41.06;37.96;51.44;;
69668;Laerm;66534;52.370;4.832;2024-03-25T00:01:46;44.37;39.00;49.42;;
69668;Laerm;66534;52.370;4.832;2024-03-25T00:02:17;42.35;39.41;46.55;;
69668;Laerm;66534;52.370;4.832;2024-03-25T00:02:47;44.33;39.63;49.38;;
69668;Laerm;66534;52.370;4.832;2024-03-25T00:03:17;42.21;38.68;47.91;;
69668;Laerm;66534;52.370;4.832;2024-03-25T00:03:48;40.49;36.66;48.45;;
69668;Laerm;66534;52.370;4.832;2024-03-25T00:04:18;42.91;37.98;51.13;;
69668;Laerm;66534;52.370;4.832;2024-03-25T00:04:51;41.77;38.95;45.15;;
69668;Laerm;66534;52.370;4.832;2024-03-25T00:05:21;42.35;37.62;51.36;;
69668;Laerm;66534;52.370;4.832;2024-03-25T00:05:55;42.48;38.64;47.42;;
69668;Laerm;66534;52.370;4.832;2024-03-25T00:06:27;44.37;39.18;51.67;;
69668;Laerm;66534;52.370;4.832;2024-03-25T00:06:57;43.12;38.72;48.40;;
69668;Laerm;66534;52.370;4.832;2024-03-25T00:07:28;43.33;39.06;50.04;;
69668;Laerm;66534;52.370;4.832;2024-03-25T00:07:59;41.30;38.35;46.85;;
69668;Laerm;66534;52.370;4.832;2024-03-25T00:08:29;39.84;36.63;43.81;;
69668;Laerm;66534;52.370;4.832;2024-03-25T00:09:00;41.70;36.83;48.66;;
69668;Laerm;66534;52.370;4.832;2024-03-25T00:09:31;40.31;36.72;47.32;;
69668;Laerm;66534;52.370;4.832;2024-03-25T00:10:02;44.99;40.04;52.29;;
69668;Laerm;66534;52.370;4.832;2024-03-25T00:10:33;41.51;37.18;46.27;;
69668;Laerm;66534;52.370;4.832;2024-03-25T00:11:04;39.07;36.53;46.11;;
69668;Laerm;66534;52.370;4.832;2024-03-25T00:11:34;42.30;36.51;50.24;;
69668;Laerm;66534;52.370;4.832;2024-03-25T00:12:05;39.39;35.98;48.51;;
69668;Laerm;66534;52.370;4.832;2024-03-25T00:12:35;42.69;37.78;50.96;;
69668;Laerm;66534;52.370;4.832;2024-03-25T00:13:06;43.53;38.27;50.05;;
69668;Laerm;66534;52.370;4.832;2024-03-25T00:13:36;44.06;38.23;50.32;;
69668;Laerm;66534;52.370;4.832;2024-03-25T00:14:06;39.51;36.12;47.77;;
69668;Laerm;66534;52.370;4.832;2024-03-25T00:14:37;44.61;35.23;65.49;;
69668;Laerm;66534;52.370;4.832;2024-03-25T00:15:08;38.51;36.51;43.46;;
69668;Laerm;66534;52.370;4.832;2024-03-25T00:15:38;37.28;35.34;42.19;;
69668;Laerm;66534;52.370;4.832;2024-03-25T00:16:09;40.10;35.51;48.15;;
69668;Laerm;66534;52.370;4.832;2024-03-25T00:16:39;41.43;37.48;46.90;;
69668;Laerm;66534;52.370;4.832;2024-03-25T00:17:12;39.79;36.15;43.18;;
69668;Laerm;66534;52.370;4.832;2024-03-25T00:17:44;40.26;37.23;44.49;;
69668;Laerm;66534;52.370;4.832;2024-03-25T00:18:14;43.13;37.42;47.34;;
69668;Laerm;66534;52.370;4.832;2024-03-25T00:18:44;41.92;37.35;49.75;;
69668;Laerm;66534;52.370;4.832;2024-03-25T00:19:15;43.54;37.50;51.30;;
69668;Laerm;66534;52.370;4.832;2024-03-25T00:19:46;49.69;40.00;62.69;;
69668;Laerm;66534;52.370;4.832;2024-03-25T00:20:20;44.08;38.78;52.44;;
69668;Laerm;66534;52.370;4.832;2024-03-25T00:20:51;46.18;42.27;54.09;;
69668;Laerm;66534;52.370;4.832;2024-03-25T00:21:22;46.24;39.84;52.25;;
69668;Laerm;66534;52.370;4.832;2024-03-25T00:21:52;41.67;37.19;50.24;;
69668;Laerm;66534;52.370;4.832;2024-03-25T00:22:23;39.73;36.88;44.56;;
69668;Laerm;66534;52.370;4.832;2024-03-25T00:22:57;46.80;37.92;60.39;;
69668;Laerm;66534;52.370;4.832;2024-03-25T00:23:27;40.57;36.82;45.69;;
69668;Laerm;66534;52.370;4.832;2024-03-25T00:23:58;37.72;35.50;44.85;;
69668;Laerm;66534;52.370;4.832;2024-03-25T00:24:28;41.98;36.47;52.61;;
69668;Laerm;66534;52.370;4.832;2024-03-25T00:24:58;42.56;37.77;49.24;;
69668;Laerm;66534;52.370;4.832;2024-03-25T00:25:29;41.08;36.22;49.54;;
69668;Laerm;66534;52.370;4.832;2024-03-25T00:25:59;44.54;38.32;53.88;;
69668;Laerm;66534;52.370;4.832;2024-03-25T00:26:29;39.46;35.95;51.19;;
69668;Laerm;66534;52.370;4.832;2024-03-25T00:27:00;39.51;36.18;45.90;;
69668;Laerm;66534;52.370;4.832;2024-03-25T00:27:30;43.53;37.50;54.50;;
69668;Laerm;66534;52.370;4.832;2024-03-25T00:28:01;42.56;36.90;52.26;;
69668;Laerm;66534;52.370;4.832;2024-03-25T00:28:31;41.29;36.75;47.72;;
69668;Laerm;66534;52.370;4.832;2024-03-25T00:29:01;43.70;38.43;53.78;;
69668;Laerm;66534;52.370;4.832;2024-03-25T00:29:32;41.79;36.80;50.83;;
69668;Laerm;66534;52.370;4.832;2024-03-25T00:30:02;42.40;38.67;54.89;;
69668;Laerm;66534;52.370;4.832;2024-03-25T00:30:33;43.41;40.25;49.73;;
69668;Laerm;66534;52.370;4.832;2024-03-25T00:31:04;46.95;40.18;52.59;;
69668;Laerm;66534;52.370;4.832;2024-03-25T00:31:34;41.47;34.94;58.79;;
69668;Laerm;66534;52.370;4.832;2024-03-25T00:32:06;45.36;35.21;60.07;;
69668;Laerm;66534;52.370;4.832;2024-03-25T00:32:38;39.62;36.43;47.92;;
69668;Laerm;66534;52.370;4.832;2024-03-25T00:33:08;43.49;38.71;54.73;;
69668;Laerm;66534;52.370;4.832;2024-03-25T00:33:38;42.28;36.27;58.26;;
69668;Laerm;66534;52.370;4.832;2024-03-25T00:34:09;37.77;35.47;41.20;;
69668;Laerm;66534;52.370;4.832;2024-03-25T00:34:39;38.45;35.55;40.99;;
69668;Laerm;66534;52.370;4.832;2024-03-25T00:35:10;43.08;39.44;47.71;;
69668;Laerm;66534;52.370;4.832;2024-03-25T00:35:40;42.37;38.30;57.50;;
69668;Laerm;66534;52.370;4.832;2024-03-25T00:36:10;40.23;36.69;54.12;;
69668;Laerm;66534;52.370;4.832;2024-03-25T00:36:41;40.16;35.97;45.43;;
69668;Laerm;66534;52.370;4.832;2024-03-25T00:37:11;39.26;35.28;44.51;;
69668;Laerm;66534;52.370;4.832;2024-03-25T00:37:44;43.76;38.00;51.64;;
69668;Laerm;66534;52.370;4.832;2024-03-25T00:38:15;42.52;36.95;57.08;;
69668;Laerm;66534;52.370;4.832;2024-03-25T00:38:45;41.80;35.91;51.09;;
69668;Laerm;66534;52.370;4.832;2024-03-25T00:39:16;37.32;34.83;46.83;;
69668;Laerm;66534;52.370;4.832;2024-03-25T00:39:47;39.99;36.19;46.55;;
69668;Laerm;66534;52.370;4.832;2024-03-25T00:40:17;38.95;35.32;44.12;;
69668;Laerm;66534;52.370;4.832;2024-03-25T00:40:48;43.95;37.09;53.11;;
69668;Laerm;66534;52.370;4.832;2024-03-25T00:41:18;37.78;35.21;41.17;;
69668;Laerm;66534;52.370;4.832;2024-03-25T00:41:49;39.09;34.92;44.59;;
69668;Laerm;66534;52.370;4.832;2024-03-25T00:42:19;36.79;34.55;49.20;;
69668;Laerm;66534;52.370;4.832;2024-03-25T00:42:50;42.88;34.86;49.22;;
69668;Laerm;66534;52.370;4.832;2024-03-25T00:43:20;40.42;36.25;47.12;;
69668;Laerm;66534;52.370;4.832;2024-03-25T00:43:50;40.63;35.81;47.07;;
69668;Laerm;66534;52.370;4.832;2024-03-25T00:44:21;40.36;36.12;52.77;;
69668;Laerm;66534;52.370;4.832;2024-03-25T00:44:51;40.84;36.16;47.26;;
69668;Laerm;66534;52.370;4.832;2024-03-25T00:45:22;40.24;35.55;46.41;;
69668;Laerm;66534;52.370;4.832;2024-03-25T00:45:52;36.33;34.42;41.98;;
69668;Laerm;66534;52.370;4.832;2024-03-25T00:46:22;40.89;35.35;47.92;;
69668;Laerm;66534;52.370;4.832;2024-03-25T00:46:53;38.12;35.54;46.95;;
69668;Laerm;66534;52.370;4.832;2024-03-25T00:47:23;39.07;35.49;44.34;;
69668;Laerm;66534;52.370;4.832;2024-03-25T00:47:54;38.31;34.93;43.25;;
69668;Laerm;66534;52.370;4.832;2024-03-25T00:48:24;36.62;34.78;45.08;;
69668;Laerm;66534;52.370;4.832;2024-03-25T00:48:55;42.27;35.50;47.79;;
69668;Laerm;66534;52.370;4.832;2024-03-25T00:49:25;43.67;37.06;51.22;;
69668;Laerm;66534;52.370;4.832;2024-03-25T00:49:56;42.22;39.47;49.96;;
69668;Laerm;66534;52.370;4.832;2024-03-25T00:50:26;44.74;39.66;54.86;;
69668;Laerm;66534;52.370;4.832;2024-03-25T00:50:57;39.39;36.46;45.35;;
69668;Laerm;66534;52.370;4.832;2024-03-25T00:51:27;38.62;36.26;43.87;;
69668;Laerm;66534;52.370;4.832;2024-03-25T00:51:58;42.33;36.09;48.70;;
69668;Laerm;66534;52.370;4.832;2024-03-25T00:52:28;39.42;35.01;46.16;;
69668;Laerm;66534;52.370;4.832;2024-03-25T00:52:59;37.75;34.26;53.48;;
69668;Laerm;66534;52.370;4.832;2024-03-25T00:53:29;42.50;36.52;48.39;;
69668;Laerm;66534;52.370;4.832;2024-03-25T00:53:59;47.63;38.00;70.16;;
69668;Laerm;66534;52.370;4.832;2024-03-25T00:54:32;39.66;35.97;44.69;;
69668;Laerm;66534;52.370;4.832;2024-03-25T00:55:03;38.19;35.39;51.24;;
69668;Laerm;66534;52.370;4.832;2024-03-25T00:55:34;39.97;37.03;43.74;;
69668;Laerm;66534;52.370;4.832;2024-03-25T00:56:05;43.46;35.80;52.73;;
69668;Laerm;66534;52.370;4.832;2024-03-25T00:56:36;41.62;35.95;49.27;;
69668;Laerm;66534;52.370;4.832;2024-03-25T00:57:06;38.05;35.75;43.35;;
69668;Laerm;66534;52.370;4.832;2024-03-25T00:57:38;41.19;37.77;45.74;;
69668;Laerm;66534;52.370;4.832;2024-03-25T00:58:08;43.42;36.59;50.20;;
69668;Laerm;66534;52.370;4.832;2024-03-25T00:58:39;41.51;37.08;50.29;;
69668;Laerm;66534;52.370;4.832;2024-03-25T00:59:09;44.57;38.40;53.33;;
69668;Laerm;66534;52.370;4.832;2024-03-25T00:59:39;43.18;38.92;48.27;;
69668;Laerm;66534;52.370;4.832;2024-03-25T01:00:10;46.22;36.36;53.64;;
69668;Laerm;66534;52.370;4.832;2024-03-25T01:00:41;43.97;35.92;60.91;;
69668;Laerm;66534;52.370;4.832;2024-03-25T01:01:11;41.13;35.44;55.83;;
69668;Laerm;66534;52.370;4.832;2024-03-25T01:01:42;39.13;35.40;46.38;;
69668;Laerm;66534;52.370;4.832;2024-03-25T01:02:12;44.56;41.13;50.89;;
69668;Laerm;66534;52.370;4.832;2024-03-25T01:02:43;50.77;40.18;63.20;;
69668;Laerm;66534;52.370;4.832;2024-03-25T01:03:13;46.41;41.05;56.39;;
69668;Laerm;66534;52.370;4.832;2024-03-25T01:03:43;41.80;37.97;48.01;;
69668;Laerm;66534;52.370;4.832;2024-03-25T01:04:14;42.46;36.27;53.80;;
69668;Laerm;66534;52.370;4.832;2024-03-25T01:04:44;38.33;35.47;41.31;;
69668;Laerm;66534;52.370;4.832;2024-03-25T01:05:14;42.20;37.02;49.70;;
69668;Laerm;66534;52.370;4.832;2024-03-25T01:05:45;42.52;36.14;52.76;;
69668;Laerm;66534;52.370;4.832;2024-03-25T01:06:15;37.79;35.16;44.26;;
69668;Laerm;66534;52.370;4.832;2024-03-25T01:06:46;40.62;38.18;43.42;;
69668;Laerm;66534;52.370;4.832;2024-03-25T01:07:16;44.85;37.53;60.78;;
69668;Laerm;66534;52.370;4.832;2024-03-25T01:07:47;40.78;35.99;48.32;;
69668;Laerm;66534;52.370;4.832;2024-03-25T01:08:17;40.56;34.93;50.23;;
69668;Laerm;66534;52.370;4.832;2024-03-25T01:08:47;37.81;34.64;46.66;;
69668;Laerm;66534;52.370;4.832;2024-03-25T01:09:18;41.57;37.52;49.97;;
69668;Laerm;66534;52.370;4.832;2024-03-25T01:09:48;38.93;35.72;47.70;;
69668;Laerm;66534;52.370;4.832;2024-03-25T01:10:19;38.63;34.69;44.09;;
69668;Laerm;66534;52.370;4.832;2024-03-25T01:10:49;37.73;34.88;50.97;;
69668;Laerm;66534;52.370;4.832;2024-03-25T01:11:20;39.00;35.21;46.83;;
69668;Laerm;66534;52.370;4.832;2024-03-25T01:11:52;39.94;36.80;45.80;;
69668;Laerm;66534;52.370;4.832;2024-03-25T01:12:22;41.56;35.50;52.87;;
69668;Laerm;66534;52.370;4.832;2024-03-25T01:12:52;40.83;36.09;48.75;;
69668;Laerm;66534;52.370;4.832;2024-03-25T01:13:23;39.62;36.57;49.58;;
69668;Laerm;66534;52.370;4.832;2024-03-25T01:13:53;37.51;35.37;39.86;;
69668;Laerm;66534;52.370;4.832;2024-03-25T01:14:23;37.75;35.50;43.18;;
69668;Laerm;66534;52.370;4.832;2024-03-25T01:14:54;39.92;36.38;47.24;;
69668;Laerm;66534;52.370;4.832;2024-03-25T01:15:27;43.26;36.93;47.69;;
69668;Laerm;66534;52.370;4.832;2024-03-25T01:15:57;40.65;35.16;46.56;;
69668;Laerm;66534;52.370;4.832;2024-03-25T01:16:28;38.16;35.00;50.39;;
69668;Laerm;66534;52.370;4.832;2024-03-25T01:16:58;39.98;35.85;50.01;;
69668;Laerm;66534;52.370;4.832;2024-03-25T01:17:28;40.99;38.02;46.42;;
69668;Laerm;66534;52.370;4.832;2024-03-25T01:17:59;38.94;36.75;41.95;;
69668;Laerm;66534;52.370;4.832;2024-03-25T01:18:29;38.50;35.13;41.87;;
69668;Laerm;66534;52.370;4.832;2024-03-25T01:19:00;38.87;36.25;42.09;;
69668;Laerm;66534;52.370;4.832;2024-03-25T01:19:30;37.49;35.18;42.05;;
69668;Laerm;66534;52.370;4.832;2024-03-25T01:20:00;39.99;34.59;47.32;;
69668;Laerm;66534;52.370;4.832;2024-03-25T01:20:31;40.26;36.20;52.94;;
69668;Laerm;66534;52.370;4.832;2024-03-25T01:21:01;41.31;36.39;47.16;;
69668;Laerm;66534;52.370;4.832;2024-03-25T01:21:32;37.26;34.91;40.82;;
69668;Laerm;66534;52.370;4.832;2024-03-25T01:22:02;36.52;33.95;48.61;;
69668;Laerm;66534;52.370;4.832;2024-03-25T01:22:33;38.51;34.81;45.73;;
69668;Laerm;66534;52.370;4.832;2024-03-25T01:23:03;37.89;34.77;42.54;;
69668;Laerm;66534;52.370;4.832;2024-03-25T01:23:34;37.29;34.64;40.79;;
69668;Laerm;66534;52.370;4.832;2024-03-25T01:24:05;39.40;35.76;44.57;;
69668;Laerm;66534;52.370;4.832;2024-03-25T01:24:36;38.59;34.76;53.87;;
69668;Laerm;66534;52.370;4.832;2024-03-25T01:25:06;38.65;34.41;47.15;;
69668;Laerm;66534;52.370;4.832;2024-03-25T01:25:37;44.55;35.36;58.52;;
69668;Laerm;66534;52.370;4.832;2024-03-25T01:26:07;43.12;36.54;58.41;;
69668;Laerm;66534;52.370;4.832;2024-03-25T01:26:38;39.88;34.80;46.16;;
69668;Laerm;66534;52.370;4.832;2024-03-25T01:27:08;38.06;34.25;54.91;;
69668;Laerm;66534;52.370;4.832;2024-03-25T01:27:38;38.98;35.41;42.88;;
69668;Laerm;66534;52.370;4.832;2024-03-25T01:28:09;39.89;35.53;51.24;;
69668;Laerm;66534;52.370;4.832;2024-03-25T01:28:39;39.88;35.22;52.51;;
69668;Laerm;66534;52.370;4.832;2024-03-25T01:29:09;43.11;36.67;51.78;;
69668;Laerm;66534;52.370;4.832;2024-03-25T01:29:40;38.14;34.33;43.11;;
69668;Laerm;66534;52.370;4.832;2024-03-25T01:30:11;35.63;33.76;39.44;;
69668;Laerm;66534;52.370;4.832;2024-03-25T01:30:42;37.99;34.29;45.37;;
69668;Laerm;66534;52.370;4.832;2024-03-25T01:31:13;40.41;34.50;50.43;;
69668;Laerm;66534;52.370;4.832;2024-03-25T01:31:44;41.55;34.99;53.72;;
69668;Laerm;66534;52.370;4.832;2024-03-25T01:32:14;38.88;34.53;42.05;;
69668;Laerm;66534;52.370;4.832;2024-03-25T01:32:45;39.09;34.43;46.47;;
69668;Laerm;66534;52.370;4.832;2024-03-25T01:33:18;37.10;34.17;41.08;;
69668;Laerm;66534;52.370;4.832;2024-03-25T01:33:48;36.67;34.35;41.09;;
69668;Laerm;66534;52.370;4.832;2024-03-25T01:34:19;37.96;33.84;42.76;;
69668;Laerm;66534;52.370;4.832;2024-03-25T01:34:49;39.81;35.37;45.26;;
69668;Laerm;66534;52.370;4.832;2024-03-25T01:35:20;42.55;37.40;54.14;;
69668;Laerm;66534;52.370;4.832;2024-03-25T01:35:50;40.18;36.06;53.12;;
69668;Laerm;66534;52.370;4.832;2024-03-25T01:36:21;41.49;38.00;47.82;;
69668;Laerm;66534;52.370;4.832;2024-03-25T01:36:51;42.93;34.40;51.51;;
69668;Laerm;66534;52.370;4.832;2024-03-25T01:37:22;35.57;33.47;37.53;;
69668;Laerm;66534;52.370;4.832;2024-03-25T01:37:53;36.57;34.50;39.67;;
69668;Laerm;66534;52.370;4.832;2024-03-25T01:38:23;40.75;37.23;46.18;;
69668;Laerm;66534;52.370;4.832;2024-03-25T01:39:01;38.36;35.14;43.08;;
69668;Laerm;66534;52.370;4.832;2024-03-25T01:39:52;44.72;37.19;54.25;;
69668;Laerm;66534;52.370;4.832;2024-03-25T01:40:23;37.33;35.15;40.60;;
69668;Laerm;66534;52.370;4.832;2024-03-25T01:40:53;38.92;34.43;48.77;;
69668;Laerm;66534;52.370;4.832;2024-03-25T01:41:24;44.90;36.30;56.82;;
69668;Laerm;66534;52.370;4.832;2024-03-25T01:41:54;42.26;38.74;46.81;;
69668;Laerm;66534;52.370;4.832;2024-03-25T01:42:25;42.17;37.98;47.26;;
69668;Laerm;66534;52.370;4.832;2024-03-25T01:42:56;39.80;35.77;44.16;;
69668;Laerm;66534;52.370;4.832;2024-03-25T01:43:26;40.70;34.91;46.58;;
69668;Laerm;66534;52.370;4.832;2024-03-25T01:43:57;42.18;36.32;48.44;;
69668;Laerm;66534;52.370;4.832;2024-03-25T01:44:27;41.34;37.07;45.40;;
69668;Laerm;66534;52.370;4.832;2024-03-25T01:44:57;41.33;37.53;46.27;;
69668;Laerm;66534;52.370;4.832;2024-03-25T01:45:30;44.37;39.30;50.58;;
69668;Laerm;66534;52.370;4.832;2024-03-25T01:46:01;39.19;36.60;47.21;;
69668;Laerm;66534;52.370;4.832;2024-03-25T01:46:31;38.45;35.66;47.48;;
69668;Laerm;66534;52.370;4.832;2024-03-25T01:47:02;39.20;35.89;52.75;;
69668;Laerm;66534;52.370;4.832;2024-03-25T01:47:32;38.62;35.73;43.86;;
69668;Laerm;66534;52.370;4.832;2024-03-25T01:48:07;40.98;37.75;46.94;;
69668;Laerm;66534;52.370;4.832;2024-03-25T01:48:38;41.03;37.08;45.54;;
69668;Laerm;66534;52.370;4.832;2024-03-25T01:49:08;37.50;35.24;44.27;;
69668;Laerm;66534;52.370;4.832;2024-03-25T01:49:39;42.34;35.23;49.75;;
69668;Laerm;66534;52.370;4.832;2024-03-25T01:50:10;40.69;36.98;47.23;;
69668;Laerm;66534;52.370;4.832;2024-03-25T01:50:44;38.30;35.62;41.10;;
69668;Laerm;66534;52.370;4.832;2024-03-25T01:51:17;38.03;35.01;44.07;;
69668;Laerm;66534;52.370;4.832;2024-03-25T01:51:48;38.68;35.47;46.60;;
69668;Laerm;66534;52.370;4.832;2024-03-25T01:52:19;37.04;34.47;54.25;;
69668;Laerm;66534;52.370;4.832;2024-03-25T01:52:50;38.43;35.47;49.75;;
69668;Laerm;66534;52.370;4.832;2024-03-25T01:53:21;41.62;37.13;46.65;;
69668;Laerm;66534;52.370;4.832;2024-03-25T01:53:54;39.25;35.03;48.33;;
69668;Laerm;66534;52.370;4.832;2024-03-25T01:54:26;36.58;34.81;38.75;;
69668;Laerm;66534;52.370;4.832;2024-03-25T01:54:57;35.77;33.64;38.26;;
69668;Laerm;66534;52.370;4.832;2024-03-25T01:55:29;36.83;33.88;45.93;;
69668;Laerm;66534;52.370;4.832;2024-03-25T01:56:01;40.96;36.59;50.49;;
69668;Laerm;66534;52.370;4.832;2024-03-25T01:56:33;37.14;34.56;43.74;;
69668;Laerm;66534;52.370;4.832;2024-03-25T01:57:05;38.98;34.70;45.72;;
69668;Laerm;66534;52.370;4.832;2024-03-25T01:57:36;44.44;35.86;62.58;;
69668;Laerm;66534;52.370;4.832;2024-03-25T01:58:08;38.35;35.87;40.51;;
69668;Laerm;66534;52.370;4.832;2024-03-25T01:58:39;37.12;34.64;39.32;;
69668;Laerm;66534;52.370;4.832;2024-03-25T01:59:10;36.90;34.90;42.44;;
69668;Laerm;66534;52.370;4.832;2024-03-25T01:59:41;37.26;34.87;41.92;;
69668;Laerm;66534;52.370;4.832;2024-03-25T02:00:12;37.76;35.63;52.59;;
69668;Laerm;66534;52.370;4.832;2024-03-25T02:00:43;39.34;35.36;47.09;;
69668;Laerm;66534;52.370;4.832;2024-03-25T02:01:14;39.16;36.22;43.07;;
69668;Laerm;66534;52.370;4.832;2024-03-25T02:01:46;37.73;35.76;40.21;;
69668;Laerm;66534;52.370;4.832;2024-03-25T02:02:16;39.49;35.49;54.99;;
69668;Laerm;66534;52.370;4.832;2024-03-25T02:02:47;39.85;33.79;53.91;;
69668;Laerm;66534;52.370;4.832;2024-03-25T02:03:17;38.22;33.16;53.56;;
69668;Laerm;66534;52.370;4.832;2024-03-25T02:03:48;35.36;33.52;37.94;;
69668;Laerm;66534;52.370;4.832;2024-03-25T02:04:19;36.37;34.22;39.23;;
69668;Laerm;66534;52.370;4.832;2024-03-25T02:04:49;38.18;35.11;47.68;;
69668;Laerm;66534;52.370;4.832;2024-03-25T02:05:20;39.15;34.53;44.68;;
69668;Laerm;66534;52.370;4.832;2024-03-25T02:05:55;40.26;36.41;49.58;;
69668;Laerm;66534;52.370;4.832;2024-03-25T02:06:27;38.14;36.30;41.31;;
69668;Laerm;66534;52.370;4.832;2024-03-25T02:06:57;39.73;37.03;45.30;;
69668;Laerm;66534;52.370;4.832;2024-03-25T02:07:30;40.75;37.89;43.60;;
69668;Laerm;66534;52.370;4.832;2024-03-25T02:08:02;46.16;38.74;55.79;;
69668;Laerm;66534;52.370;4.832;2024-03-25T02:08:34;42.29;36.93;48.32;;
69668;Laerm;66534;52.370;4.832;2024-03-25T02:09:05;42.79;38.26;49.95;;
69668;Laerm;66534;52.370;4.832;2024-03-25T02:09:36;38.67;35.94;42.40;;
69668;Laerm;66534;52.370;4.832;2024-03-25T02:10:08;42.84;37.38;48.51;;
69668;Laerm;66534;52.370;4.832;2024-03-25T02:10:44;38.68;35.95;45.38;;
69668;Laerm;66534;52.370;4.832;2024-03-25T02:11:16;41.07;37.36;45.33;;
69668;Laerm;66534;52.370;4.832;2024-03-25T02:11:46;42.63;37.52;48.46;;
69668;Laerm;66534;52.370;4.832;2024-03-25T02:12:17;39.88;36.43;46.02;;
69668;Laerm;66534;52.370;4.832;2024-03-25T02:12:47;38.71;35.38;45.29;;
69668;Laerm;66534;52.370;4.832;2024-03-25T02:13:18;38.00;34.68;54.10;;
69668;Laerm;66534;52.370;4.832;2024-03-25T02:13:48;40.92;35.24;62.48;;
69668;Laerm;66534;52.370;4.832;2024-03-25T02:14:19;41.60;34.91;50.98;;
69668;Laerm;66534;52.370;4.832;2024-03-25T02:14:50;39.66;34.90;52.86;;
69668;Laerm;66534;52.370;4.832;2024-03-25T02:15:21;36.88;34.28;39.47;;
69668;Laerm;66534;52.370;4.832;2024-03-25T02:15:51;41.16;34.09;51.09;;
69668;Laerm;66534;52.370;4.832;2024-03-25T02:16:23;43.18;33.96;53.00;;
69668;Laerm;66534;52.370;4.832;2024-03-25T02:16:53;43.42;36.11;54.83;;
69668;Laerm;66534;52.370;4.832;2024-03-25T02:17:24;37.64;34.10;48.67;;
69668;Laerm;66534;52.370;4.832;2024-03-25T02:17:54;36.03;33.91;44.31;;
69668;Laerm;66534;52.370;4.832;2024-03-25T02:18:25;37.32;33.96;48.46;;
69668;Laerm;66534;52.370;4.832;2024-03-25T02:18:55;39.56;34.95;44.08;;
69668;Laerm;66534;52.370;4.832;2024-03-25T02:19:26;41.05;34.48;48.68;;
69668;Laerm;66534;52.370;4.832;2024-03-25T02:19:56;41.33;36.87;46.67;;
69668;Laerm;66534;52.370;4.832;2024-03-25T02:20:27;40.09;35.36;45.16;;
69668;Laerm;66534;52.370;4.832;2024-03-25T02:20:58;36.83;33.98;42.97;;
69668;Laerm;66534;52.370;4.832;2024-03-25T02:21:29;37.25;33.95;48.53;;
69668;Laerm;66534;52.370;4.832;2024-03-25T02:22:01;38.37;36.23;41.62;;
69668;Laerm;66534;52.370;4.832;2024-03-25T02:22:33;43.52;35.93;51.02;;
69668;Laerm;66534;52.370;4.832;2024-03-25T02:23:04;38.16;36.23;40.76;;
69668;Laerm;66534;52.370;4.832;2024-03-25T02:23:34;40.08;35.49;45.57;;
69668;Laerm;66534;52.370;4.832;2024-03-25T02:24:09;38.60;34.48;46.88;;
69668;Laerm;66534;52.370;4.832;2024-03-25T02:24:41;39.51;35.48;45.14;;
69668;Laerm;66534;52.370;4.832;2024-03-25T02:25:11;35.94;33.80;39.34;;
69668;Laerm;66534;52.370;4.832;2024-03-25T02:25:49;36.33;34.30;38.81;;
69668;Laerm;66534;52.370;4.832;2024-03-25T02:26:20;38.46;34.46;43.78;;
69668;Laerm;66534;52.370;4.832;2024-03-25T02:26:50;43.08;37.29;51.58;;
69668;Laerm;66534;52.370;4.832;2024-03-25T02:27:22;39.07;34.38;61.36;;
69668;Laerm;66534;52.370;4.832;2024-03-25T02:27:52;35.91;33.51;38.74;;
69668;Laerm;66534;52.370;4.832;2024-03-25T02:28:22;42.93;34.28;60.60;;
69668;Laerm;66534;52.370;4.832;2024-03-25T02:28:53;38.04;34.74;42.15;;
69668;Laerm;66534;52.370;4.832;2024-03-25T02:29:32;38.73;34.78;45.30;;
69668;Laerm;66534;52.370;4.832;2024-03-25T02:30:34;36.92;33.80;45.11;;
69668;Laerm;66534;52.370;4.832;2024-03-25T02:31:06;48.22;34.31;65.13;;
69668;Laerm;66534;52.370;4.832;2024-03-25T02:31:37;50.23;34.83;64.34;;
69668;Laerm;66534;52.370;4.832;2024-03-25T02:32:08;37.88;35.33;46.90;;
69668;Laerm;66534;52.370;4.832;2024-03-25T02:32:41;37.37;34.59;43.96;;
69668;Laerm;66534;52.370;4.832;2024-03-25T02:33:11;36.32;34.26;38.44;;
69668;Laerm;66534;52.370;4.832;2024-03-25T02:33:42;44.40;34.32;61.37;;
69668;Laerm;66534;52.370;4.832;2024-03-25T02:34:12;36.19;34.03;44.04;;
69668;Laerm;66534;52.370;4.832;2024-03-25T02:34:46;40.63;34.71;47.83;;
69668;Laerm;66534;52.370;4.832;2024-03-25T02:35:17;37.43;34.94;39.63;;
69668;Laerm;66534;52.370;4.832;2024-03-25T02:35:48;39.61;36.18;43.47;;
69668;Laerm;66534;52.370;4.832;2024-03-25T02:36:19;37.24;34.58;42.07;;
69668;Laerm;66534;52.370;4.832;2024-03-25T02:36:49;40.97;35.23;48.41;;
69668;Laerm;66534;52.370;4.832;2024-03-25T02:37:19;40.22;36.30;44.39;;
69668;Laerm;66534;52.370;4.832;2024-03-25T02:37:51;41.29;37.47;48.06;;
69668;Laerm;66534;52.370;4.832;2024-03-25T02:38:22;42.95;37.25;48.54;;
69668;Laerm;66534;52.370;4.832;2024-03-25T02:38:53;41.51;36.21;51.01;;
69668;Laerm;66534;52.370;4.832;2024-03-25T02:39:24;43.88;35.02;53.68;;
69668;Laerm;66534;52.370;4.832;2024-03-25T02:39:57;36.93;34.45;40.18;;
69668;Laerm;66534;52.370;4.832;2024-03-25T02:40:29;38.48;36.23;52.88;;
69668;Laerm;66534;52.370;4.832;2024-03-25T02:41:00;40.01;35.36;44.51;;
69668;Laerm;66534;52.370;4.832;2024-03-25T02:41:31;39.86;36.59;46.04;;
69668;Laerm;66534;52.370;4.832;2024-03-25T02:42:02;38.60;34.59;45.68;;
69668;Laerm;66534;52.370;4.832;2024-03-25T02:42:33;40.78;33.90;59.96;;
69668;Laerm;66534;52.370;4.832;2024-03-25T02:43:04;41.90;35.60;55.23;;
69668;Laerm;66534;52.370;4.832;2024-03-25T02:43:34;48.41;36.12;60.06;;
69668;Laerm;66534;52.370;4.832;2024-03-25T02:44:05;37.45;33.10;47.72;;
69668;Laerm;66534;52.370;4.832;2024-03-25T02:44:36;35.26;32.51;37.99;;
69668;Laerm;66534;52.370;4.832;2024-03-25T02:45:06;36.32;33.45;39.91;;
69668;Laerm;66534;52.370;4.832;2024-03-25T02:45:37;35.66;33.61;38.50;;
69668;Laerm;66534;52.370;4.832;2024-03-25T02:46:07;35.94;33.30;38.46;;
69668;Laerm;66534;52.370;4.832;2024-03-25T02:46:41;36.86;34.50;40.81;;
69668;Laerm;66534;52.370;4.832;2024-03-25T02:47:11;40.50;37.42;53.99;;
69668;Laerm;66534;52.370;4.832;2024-03-25T02:47:43;42.51;35.20;48.89;;
69668;Laerm;66534;52.370;4.832;2024-03-25T02:48:14;36.26;33.54;50.57;;
69668;Laerm;66534;52.370;4.832;2024-03-25T02:48:46;35.59;33.54;39.39;;
69668;Laerm;66534;52.370;4.832;2024-03-25T02:49:16;36.81;34.48;40.08;;
69668;Laerm;66534;52.370;4.832;2024-03-25T02:49:46;39.50;35.32;45.34;;
69668;Laerm;66534;52.370;4.832;2024-03-25T02:50:17;35.92;33.43;42.59;;
69668;Laerm;66534;52.370;4.832;2024-03-25T02:50:48;35.75;32.86;39.12;;
69668;Laerm;66534;52.370;4.832;2024-03-25T02:51:18;36.00;33.91;40.24;;
69668;Laerm;66534;52.370;4.832;2024-03-25T02:51:48;35.81;33.54;40.77;;
69668;Laerm;66534;52.370;4.832;2024-03-25T02:52:19;35.24;33.46;39.73;;
69668;Laerm;66534;52.370;4.832;2024-03-25T02:52:50;34.72;33.04;40.87;;
69668;Laerm;66534;52.370;4.832;2024-03-25T02:53:20;35.13;33.17;41.25;;
69668;Laerm;66534;52.370;4.832;2024-03-25T02:53:51;38.48;34.24;47.58;;